Terminal Aerodrome Forecast
Issued by NWS Milwaukee/Sullivan, WI

Home | Current Version | Previous Version | Text Only | Print | Product List | Glossary On
Versions: 1 2 3 4 5 6 7 8 9 10 11 12 13 14 15 16 17 18 19 20 21 22 23 24
000
FTUS43 KMKX 261138
TAFMKE
TAF
KMKE 261138Z 2612/2718 VRB03KT P6SM FEW060 BKN250
     FM261500 21009KT P6SM SCT060 BKN150
     FM261900 23009KT P6SM VCSH SCT040 BKN120
     FM262100 23008KT P6SM VCSH SCT040 BKN100
     FM270000 27006KT P6SM VCSH SCT040 BKN080
     FM270200 28005KT P6SM SCT030 BKN050
     FM271300 32009KT P6SM SCT200=

USA.gov is the U.S. government's official web portal to all federal, state and local government web resources and services.